sensor_id;sensor_type;location;lat;lon;timestamp;P1;durP1;ratioP1;P2;durP2;ratioP2
20000;SDS011;10161;41.188;-8.642;2022-11-25T00:01:03;17.47;;;10.50;;
20000;SDS011;10161;41.188;-8.642;2022-11-25T00:03:31;16.73;;;9.87;;
20000;SDS011;10161;41.188;-8.642;2022-11-25T00:06:06;17.87;;;8.07;;
20000;SDS011;10161;41.188;-8.642;2022-11-25T00:08:34;17.40;;;7.30;;
20000;SDS011;10161;41.188;-8.642;2022-11-25T00:11:02;14.40;;;6.40;;
20000;SDS011;10161;41.188;-8.642;2022-11-25T00:13:30;14.03;;;6.57;;
20000;SDS011;10161;41.188;-8.642;2022-11-25T00:15:59;18.33;;;6.80;;
20000;SDS011;10161;41.188;-8.642;2022-11-25T00:18:26;16.67;;;6.20;;
20000;SDS011;10161;41.188;-8.642;2022-11-25T00:20:53;22.30;;;7.60;;
20000;SDS011;10161;41.188;-8.642;2022-11-25T00:23:20;19.80;;;7.47;;
20000;SDS011;10161;41.188;-8.642;2022-11-25T00:25:47;23.77;;;8.20;;
20000;SDS011;10161;41.188;-8.642;2022-11-25T00:28:15;26.37;;;7.53;;
20000;SDS011;10161;41.188;-8.642;2022-11-25T00:30:42;24.50;;;7.53;;
20000;SDS011;10161;41.188;-8.642;2022-11-25T00:33:09;30.57;;;8.40;;
20000;SDS011;10161;41.188;-8.642;2022-11-25T00:35:36;18.53;;;6.87;;
20000;SDS011;10161;41.188;-8.642;2022-11-25T00:38:03;26.97;;;8.10;;
20000;SDS011;10161;41.188;-8.642;2022-11-25T00:40:30;23.53;;;7.30;;
20000;SDS011;10161;41.188;-8.642;2022-11-25T00:42:57;26.87;;;7.00;;
20000;SDS011;10161;41.188;-8.642;2022-11-25T00:45:42;30.10;;;7.13;;
20000;SDS011;10161;41.188;-8.642;2022-11-25T00:48:09;15.50;;;6.60;;
20000;SDS011;10161;41.188;-8.642;2022-11-25T00:50:36;33.50;;;7.70;;
20000;SDS011;10161;41.188;-8.642;2022-11-25T00:53:03;20.27;;;7.17;;
20000;SDS011;10161;41.188;-8.642;2022-11-25T00:55:30;24.47;;;7.80;;
20000;SDS011;10161;41.188;-8.642;2022-11-25T00:58:17;22.47;;;6.43;;
20000;SDS011;10161;41.188;-8.642;2022-11-25T01:00:45;21.33;;;7.23;;
20000;SDS011;10161;41.188;-8.642;2022-11-25T01:03:12;25.10;;;7.30;;
20000;SDS011;10161;41.188;-8.642;2022-11-25T01:05:38;26.70;;;7.23;;
20000;SDS011;10161;41.188;-8.642;2022-11-25T01:08:05;18.17;;;6.90;;
20000;SDS011;10161;41.188;-8.642;2022-11-25T01:10:32;28.17;;;7.33;;
20000;SDS011;10161;41.188;-8.642;2022-11-25T01:12:59;17.83;;;6.10;;
20000;SDS011;10161;41.188;-8.642;2022-11-25T01:15:26;23.37;;;6.23;;
20000;SDS011;10161;41.188;-8.642;2022-11-25T01:17:54;22.27;;;5.73;;
20000;SDS011;10161;41.188;-8.642;2022-11-25T01:20:21;20.40;;;6.80;;
20000;SDS011;10161;41.188;-8.642;2022-11-25T01:22:48;20.73;;;5.70;;
20000;SDS011;10161;41.188;-8.642;2022-11-25T01:25:17;13.60;;;5.80;;
20000;SDS011;10161;41.188;-8.642;2022-11-25T01:27:44;14.27;;;5.60;;
20000;SDS011;10161;41.188;-8.642;2022-11-25T01:30:11;20.20;;;6.03;;
20000;SDS011;10161;41.188;-8.642;2022-11-25T01:32:38;16.93;;;4.93;;
20000;SDS011;10161;41.188;-8.642;2022-11-25T01:35:07;15.97;;;4.33;;
20000;SDS011;10161;41.188;-8.642;2022-11-25T01:37:35;13.67;;;4.80;;
20000;SDS011;10161;41.188;-8.642;2022-11-25T01:40:02;17.27;;;4.50;;
20000;SDS011;10161;41.188;-8.642;2022-11-25T01:42:29;15.37;;;4.63;;
20000;SDS011;10161;41.188;-8.642;2022-11-25T01:48:09;15.80;;;4.80;;
20000;SDS011;10161;41.188;-8.642;2022-11-25T01:50:39;21.20;;;5.73;;
20000;SDS011;10161;41.188;-8.642;2022-11-25T01:53:08;17.80;;;4.80;;
20000;SDS011;10161;41.188;-8.642;2022-11-25T01:55:36;16.40;;;4.50;;
20000;SDS011;10161;41.188;-8.642;2022-11-25T01:58:07;15.30;;;4.90;;
20000;SDS011;10161;41.188;-8.642;2022-11-25T02:00:37;14.80;;;3.30;;
20000;SDS011;10161;41.188;-8.642;2022-11-25T02:03:04;9.07;;;4.40;;
20000;SDS011;10161;41.188;-8.642;2022-11-25T02:05:34;15.10;;;4.17;;
20000;SDS011;10161;41.188;-8.642;2022-11-25T02:08:04;16.23;;;4.60;;
20000;SDS011;10161;41.188;-8.642;2022-11-25T02:10:32;15.23;;;4.53;;
20000;SDS011;10161;41.188;-8.642;2022-11-25T02:13:00;26.17;;;5.50;;
20000;SDS011;10161;41.188;-8.642;2022-11-25T02:15:28;18.53;;;5.00;;
20000;SDS011;10161;41.188;-8.642;2022-11-25T02:17:55;19.90;;;4.70;;
20000;SDS011;10161;41.188;-8.642;2022-11-25T02:20:22;15.00;;;4.30;;
20000;SDS011;10161;41.188;-8.642;2022-11-25T02:22:52;15.67;;;4.60;;
20000;SDS011;10161;41.188;-8.642;2022-11-25T02:25:25;12.73;;;3.60;;
20000;SDS011;10161;41.188;-8.642;2022-11-25T02:27:54;12.63;;;3.70;;
20000;SDS011;10161;41.188;-8.642;2022-11-25T02:30:23;10.77;;;3.57;;
20000;SDS011;10161;41.188;-8.642;2022-11-25T02:32:50;7.37;;;3.30;;
20000;SDS011;10161;41.188;-8.642;2022-11-25T02:35:24;10.37;;;3.50;;
20000;SDS011;10161;41.188;-8.642;2022-11-25T02:37:57;13.77;;;3.90;;
20000;SDS011;10161;41.188;-8.642;2022-11-25T02:40:27;12.27;;;3.80;;
20000;SDS011;10161;41.188;-8.642;2022-11-25T02:42:55;12.53;;;3.70;;
20000;SDS011;10161;41.188;-8.642;2022-11-25T02:45:26;10.90;;;3.63;;
20000;SDS011;10161;41.188;-8.642;2022-11-25T02:47:57;10.07;;;3.83;;
20000;SDS011;10161;41.188;-8.642;2022-11-25T02:50:24;12.63;;;3.17;;
20000;SDS011;10161;41.188;-8.642;2022-11-25T02:52:51;10.30;;;3.60;;
20000;SDS011;10161;41.188;-8.642;2022-11-25T02:55:18;7.40;;;3.43;;
20000;SDS011;10161;41.188;-8.642;2022-11-25T02:57:46;7.37;;;3.17;;
20000;SDS011;10161;41.188;-8.642;2022-11-25T03:00:14;10.70;;;4.10;;
20000;SDS011;10161;41.188;-8.642;2022-11-25T03:02:41;8.70;;;3.50;;
20000;SDS011;10161;41.188;-8.642;2022-11-25T03:05:08;11.80;;;4.20;;
20000;SDS011;10161;41.188;-8.642;2022-11-25T03:07:35;11.43;;;3.27;;
20000;SDS011;10161;41.188;-8.642;2022-11-25T03:10:03;11.10;;;3.50;;
20000;SDS011;10161;41.188;-8.642;2022-11-25T03:12:31;7.87;;;3.23;;
20000;SDS011;10161;41.188;-8.642;2022-11-25T03:14:59;6.60;;;3.50;;
20000;SDS011;10161;41.188;-8.642;2022-11-25T03:17:26;17.10;;;5.93;;
20000;SDS011;10161;41.188;-8.642;2022-11-25T03:19:53;12.97;;;6.57;;
20000;SDS011;10161;41.188;-8.642;2022-11-25T03:22:20;16.90;;;5.53;;
20000;SDS011;10161;41.188;-8.642;2022-11-25T03:24:47;9.90;;;5.17;;
20000;SDS011;10161;41.188;-8.642;2022-11-25T03:27:14;15.70;;;7.63;;
20000;SDS011;10161;41.188;-8.642;2022-11-25T03:29:41;9.13;;;5.40;;
20000;SDS011;10161;41.188;-8.642;2022-11-25T03:32:09;10.70;;;5.00;;
20000;SDS011;10161;41.188;-8.642;2022-11-25T03:34:36;8.90;;;4.30;;
20000;SDS011;10161;41.188;-8.642;2022-11-25T03:37:03;11.50;;;4.17;;
20000;SDS011;10161;41.188;-8.642;2022-11-25T03:39:30;11.80;;;4.73;;
20000;SDS011;10161;41.188;-8.642;2022-11-25T03:41:57;9.53;;;4.13;;
20000;SDS011;10161;41.188;-8.642;2022-11-25T03:44:24;11.87;;;4.10;;
20000;SDS011;10161;41.188;-8.642;2022-11-25T03:46:51;10.20;;;4.40;;
20000;SDS011;10161;41.188;-8.642;2022-11-25T03:49:19;12.83;;;4.40;;
20000;SDS011;10161;41.188;-8.642;2022-11-25T03:51:46;10.17;;;3.57;;
20000;SDS011;10161;41.188;-8.642;2022-11-25T03:54:13;11.20;;;3.30;;
20000;SDS011;10161;41.188;-8.642;2022-11-25T03:56:40;9.80;;;3.30;;
20000;SDS011;10161;41.188;-8.642;2022-11-25T03:59:07;8.90;;;3.10;;
20000;SDS011;10161;41.188;-8.642;2022-11-25T04:01:34;8.70;;;3.37;;
20000;SDS011;10161;41.188;-8.642;2022-11-25T04:04:01;7.17;;;3.87;;
20000;SDS011;10161;41.188;-8.642;2022-11-25T04:06:29;8.67;;;3.40;;
20000;SDS011;10161;41.188;-8.642;2022-11-25T04:08:56;6.33;;;2.97;;
20000;SDS011;10161;41.188;-8.642;2022-11-25T04:11:23;9.90;;;3.53;;
20000;SDS011;10161;41.188;-8.642;2022-11-25T04:14:10;8.23;;;3.10;;
20000;SDS011;10161;41.188;-8.642;2022-11-25T04:16:36;8.87;;;3.50;;
20000;SDS011;10161;41.188;-8.642;2022-11-25T04:19:03;7.20;;;3.83;;
20000;SDS011;10161;41.188;-8.642;2022-11-25T04:21:31;6.73;;;3.33;;
20000;SDS011;10161;41.188;-8.642;2022-11-25T04:23:58;4.50;;;2.93;;
20000;SDS011;10161;41.188;-8.642;2022-11-25T04:26:25;6.60;;;3.30;;
20000;SDS011;10161;41.188;-8.642;2022-11-25T04:28:52;7.10;;;3.40;;
20000;SDS011;10161;41.188;-8.642;2022-11-25T04:31:19;9.13;;;3.90;;
20000;SDS011;10161;41.188;-8.642;2022-11-25T04:33:45;13.63;;;5.03;;
20000;SDS011;10161;41.188;-8.642;2022-11-25T04:36:12;9.90;;;4.17;;
20000;SDS011;10161;41.188;-8.642;2022-11-25T04:38:41;9.93;;;4.67;;
20000;SDS011;10161;41.188;-8.642;2022-11-25T04:41:08;10.73;;;5.23;;
20000;SDS011;10161;41.188;-8.642;2022-11-25T04:43:35;10.33;;;5.63;;
20000;SDS011;10161;41.188;-8.642;2022-11-25T04:46:02;9.93;;;5.13;;
20000;SDS011;10161;41.188;-8.642;2022-11-25T04:48:29;14.73;;;5.60;;
20000;SDS011;10161;41.188;-8.642;2022-11-25T04:50:56;7.83;;;5.20;;
20000;SDS011;10161;41.188;-8.642;2022-11-25T04:53:23;10.77;;;5.87;;
20000;SDS011;10161;41.188;-8.642;2022-11-25T04:55:51;11.43;;;6.30;;
20000;SDS011;10161;41.188;-8.642;2022-11-25T04:58:18;16.53;;;8.07;;
20000;SDS011;10161;41.188;-8.642;2022-11-25T05:00:59;16.67;;;9.67;;
20000;SDS011;10161;41.188;-8.642;2022-11-25T05:03:26;14.53;;;9.07;;
20000;SDS011;10161;41.188;-8.642;2022-11-25T05:05:52;17.53;;;9.50;;
20000;SDS011;10161;41.188;-8.642;2022-11-25T05:08:20;13.57;;;8.70;;
20000;SDS011;10161;41.188;-8.642;2022-11-25T05:10:46;11.50;;;7.30;;
20000;SDS011;10161;41.188;-8.642;2022-11-25T05:13:15;12.37;;;6.60;;
20000;SDS011;10161;41.188;-8.642;2022-11-25T05:15:41;10.20;;;5.77;;
20000;SDS011;10161;41.188;-8.642;2022-11-25T05:18:08;14.80;;;6.40;;
20000;SDS011;10161;41.188;-8.642;2022-11-25T05:20:35;12.20;;;5.40;;
20000;SDS011;10161;41.188;-8.642;2022-11-25T05:23:02;9.70;;;5.80;;
20000;SDS011;10161;41.188;-8.642;2022-11-25T05:25:29;13.70;;;5.53;;
20000;SDS011;10161;41.188;-8.642;2022-11-25T05:27:56;13.27;;;6.73;;
20000;SDS011;10161;41.188;-8.642;2022-11-25T05:30:24;16.10;;;7.47;;
20000;SDS011;10161;41.188;-8.642;2022-11-25T05:32:51;13.97;;;6.30;;
20000;SDS011;10161;41.188;-8.642;2022-11-25T05:35:18;9.50;;;5.30;;
20000;SDS011;10161;41.188;-8.642;2022-11-25T05:37:46;10.33;;;5.70;;
20000;SDS011;10161;41.188;-8.642;2022-11-25T05:40:13;11.97;;;5.60;;
20000;SDS011;10161;41.188;-8.642;2022-11-25T05:42:40;8.50;;;5.10;;
20000;SDS011;10161;41.188;-8.642;2022-11-25T05:45:07;8.87;;;5.63;;
20000;SDS011;10161;41.188;-8.642;2022-11-25T05:47:36;10.30;;;5.07;;
20000;SDS011;10161;41.188;-8.642;2022-11-25T05:50:03;6.03;;;4.80;;
20000;SDS011;10161;41.188;-8.642;2022-11-25T05:52:31;8.90;;;4.93;;
20000;SDS011;10161;41.188;-8.642;2022-11-25T05:54:58;7.97;;;5.27;;
20000;SDS011;10161;41.188;-8.642;2022-11-25T05:57:25;10.00;;;5.37;;
20000;SDS011;10161;41.188;-8.642;2022-11-25T05:59:53;7.90;;;6.43;;
20000;SDS011;10161;41.188;-8.642;2022-11-25T06:02:20;11.67;;;7.53;;
20000;SDS011;10161;41.188;-8.642;2022-11-25T06:04:48;12.33;;;8.20;;
20000;SDS011;10161;41.188;-8.642;2022-11-25T06:07:15;15.77;;;9.27;;
20000;SDS011;10161;41.188;-8.642;2022-11-25T06:09:42;9.43;;;7.37;;
20000;SDS011;10161;41.188;-8.642;2022-11-25T06:12:08;8.37;;;6.43;;
20000;SDS011;10161;41.188;-8.642;2022-11-25T06:14:35;8.47;;;6.03;;
20000;SDS011;10161;41.188;-8.642;2022-11-25T06:17:02;11.43;;;7.77;;
20000;SDS011;10161;41.188;-8.642;2022-11-25T06:19:29;12.47;;;9.20;;
20000;SDS011;10161;41.188;-8.642;2022-11-25T06:21:58;13.47;;;8.93;;
20000;SDS011;10161;41.188;-8.642;2022-11-25T06:24:24;11.63;;;8.03;;
20000;SDS011;10161;41.188;-8.642;2022-11-25T06:26:51;10.43;;;8.03;;
20000;SDS011;10161;41.188;-8.642;2022-11-25T06:29:18;8.77;;;6.53;;
20000;SDS011;10161;41.188;-8.642;2022-11-25T06:31:45;6.40;;;5.40;;
20000;SDS011;10161;41.188;-8.642;2022-11-25T06:34:14;10.67;;;6.53;;
20000;SDS011;10161;41.188;-8.642;2022-11-25T06:36:41;9.40;;;7.00;;
20000;SDS011;10161;41.188;-8.642;2022-11-25T06:39:09;9.50;;;6.73;;
20000;SDS011;10161;41.188;-8.642;2022-11-25T06:41:36;14.70;;;6.60;;
20000;SDS011;10161;41.188;-8.642;2022-11-25T06:44:03;9.67;;;6.50;;
20000;SDS011;10161;41.188;-8.642;2022-11-25T06:46:30;7.37;;;5.70;;
20000;SDS011;10161;41.188;-8.642;2022-11-25T06:48:57;10.23;;;6.13;;
20000;SDS011;10161;41.188;-8.642;2022-11-25T06:51:24;15.33;;;8.23;;
20000;SDS011;10161;41.188;-8.642;2022-11-25T06:53:51;13.73;;;8.80;;
20000;SDS011;10161;41.188;-8.642;2022-11-25T06:56:20;14.87;;;7.60;;
20000;SDS011;10161;41.188;-8.642;2022-11-25T06:58:48;9.20;;;6.97;;
20000;SDS011;10161;41.188;-8.642;2022-11-25T07:01:17;15.33;;;7.00;;
20000;SDS011;10161;41.188;-8.642;2022-11-25T07:03:45;13.77;;;7.37;;
20000;SDS011;10161;41.188;-8.642;2022-11-25T07:06:13;10.23;;;6.80;;
20000;SDS011;10161;41.188;-8.642;2022-11-25T07:08:41;10.07;;;6.10;;
20000;SDS011;10161;41.188;-8.642;2022-11-25T07:11:09;18.77;;;7.67;;
20000;SDS011;10161;41.188;-8.642;2022-11-25T07:13:39;14.37;;;8.00;;
20000;SDS011;10161;41.188;-8.642;2022-11-25T07:16:06;13.20;;;8.13;;
20000;SDS011;10161;41.188;-8.642;2022-11-25T07:18:34;12.30;;;7.43;;
20000;SDS011;10161;41.188;-8.642;2022-11-25T07:21:03;10.20;;;6.93;;
20000;SDS011;10161;41.188;-8.642;2022-11-25T07:23:31;13.40;;;8.00;;
20000;SDS011;10161;41.188;-8.642;2022-11-25T07:26:01;9.00;;;6.90;;
20000;SDS011;10161;41.188;-8.642;2022-11-25T07:28:29;11.30;;;6.83;;
20000;SDS011;10161;41.188;-8.642;2022-11-25T07:31:03;10.00;;;6.80;;
20000;SDS011;10161;41.188;-8.642;2022-11-25T07:33:31;9.57;;;6.50;;
20000;SDS011;10161;41.188;-8.642;2022-11-25T07:36:00;12.17;;;6.60;;
20000;SDS011;10161;41.188;-8.642;2022-11-25T07:38:27;8.60;;;6.07;;
20000;SDS011;10161;41.188;-8.642;2022-11-25T07:40:54;6.80;;;5.53;;
20000;SDS011;10161;41.188;-8.642;2022-11-25T07:43:21;11.50;;;6.60;;
20000;SDS011;10161;41.188;-8.642;2022-11-25T07:45:48;9.60;;;6.20;;
20000;SDS011;10161;41.188;-8.642;2022-11-25T07:48:16;12.40;;;6.07;;
20000;SDS011;10161;41.188;-8.642;2022-11-25T07:50:43;8.73;;;5.23;;
20000;SDS011;10161;41.188;-8.642;2022-11-25T07:53:11;9.00;;;5.50;;
20000;SDS011;10161;41.188;-8.642;2022-11-25T07:55:38;8.40;;;4.73;;
20000;SDS011;10161;41.188;-8.642;2022-11-25T07:58:05;9.87;;;5.57;;
20000;SDS011;10161;41.188;-8.642;2022-11-25T08:00:32;12.07;;;6.73;;
20000;SDS011;10161;41.188;-8.642;2022-11-25T08:02:59;11.00;;;5.30;;
20000;SDS011;10161;41.188;-8.642;2022-11-25T08:05:27;9.37;;;5.20;;
20000;SDS011;10161;41.188;-8.642;2022-11-25T08:07:54;10.10;;;5.03;;
20000;SDS011;10161;41.188;-8.642;2022-11-25T08:10:21;9.10;;;4.50;;
20000;SDS011;10161;41.188;-8.642;2022-11-25T08:12:48;11.37;;;4.90;;
20000;SDS011;10161;41.188;-8.642;2022-11-25T08:15:15;8.30;;;4.33;;
20000;SDS011;10161;41.188;-8.642;2022-11-25T08:17:42;9.63;;;4.33;;
20000;SDS011;10161;41.188;-8.642;2022-11-25T08:20:08;7.57;;;4.53;;
20000;SDS011;10161;41.188;-8.642;2022-11-25T08:22:37;7.27;;;4.10;;
20000;SDS011;10161;41.188;-8.642;2022-11-25T08:25:04;16.17;;;8.37;;
20000;SDS011;10161;41.188;-8.642;2022-11-25T08:27:32;19.03;;;11.03;;
20000;SDS011;10161;41.188;-8.642;2022-11-25T08:29:58;17.57;;;12.07;;
20000;SDS011;10161;41.188;-8.642;2022-11-25T08:32:25;15.67;;;10.83;;
20000;SDS011;10161;41.188;-8.642;2022-11-25T08:34:52;14.00;;;10.10;;
20000;SDS011;10161;41.188;-8.642;2022-11-25T08:37:19;11.93;;;8.77;;
20000;SDS011;10161;41.188;-8.642;2022-11-25T08:39:49;10.53;;;7.63;;
20000;SDS011;10161;41.188;-8.642;2022-11-25T08:42:16;11.53;;;7.47;;
20000;SDS011;10161;41.188;-8.642;2022-11-25T08:44:42;15.00;;;7.00;;
20000;SDS011;10161;41.188;-8.642;2022-11-25T08:47:09;11.60;;;7.30;;
20000;SDS011;10161;41.188;-8.642;2022-11-25T08:49:36;10.80;;;7.13;;
20000;SDS011;10161;41.188;-8.642;2022-11-25T08:52:03;9.70;;;6.10;;
20000;SDS011;10161;41.188;-8.642;2022-11-25T08:54:30;10.57;;;5.80;;
20000;SDS011;10161;41.188;-8.642;2022-11-25T08:56:58;15.63;;;8.10;;
20000;SDS011;10161;41.188;-8.642;2022-11-25T08:59:25;10.43;;;7.80;;
20000;SDS011;10161;41.188;-8.642;2022-11-25T09:01:52;15.50;;;10.97;;
20000;SDS011;10161;41.188;-8.642;2022-11-25T09:04:19;16.27;;;10.30;;
20000;SDS011;10161;41.188;-8.642;2022-11-25T09:06:46;13.10;;;10.80;;
20000;SDS011;10161;41.188;-8.642;2022-11-25T09:09:13;15.37;;;12.73;;
20000;SDS011;10161;41.188;-8.642;2022-11-25T09:11:40;14.93;;;13.33;;
20000;SDS011;10161;41.188;-8.642;2022-11-25T09:14:08;14.53;;;13.00;;
20000;SDS011;10161;41.188;-8.642;2022-11-25T09:16:35;15.23;;;11.37;;
20000;SDS011;10161;41.188;-8.642;2022-11-25T09:19:02;17.20;;;14.73;;
20000;SDS011;10161;41.188;-8.642;2022-11-25T09:21:30;30.17;;;20.47;;
20000;SDS011;10161;41.188;-8.642;2022-11-25T09:23:58;27.70;;;21.67;;
20000;SDS011;10161;41.188;-8.642;2022-11-25T09:26:25;25.20;;;20.87;;
20000;SDS011;10161;41.188;-8.642;2022-11-25T09:28:54;18.73;;;16.73;;
20000;SDS011;10161;41.188;-8.642;2022-11-25T09:31:22;19.83;;;16.10;;
20000;SDS011;10161;41.188;-8.642;2022-11-25T09:33:49;21.60;;;19.50;;
20000;SDS011;10161;41.188;-8.642;2022-11-25T09:36:17;18.13;;;15.77;;
20000;SDS011;10161;41.188;-8.642;2022-11-25T09:38:45;23.23;;;16.37;;
20000;SDS011;10161;41.188;-8.642;2022-11-25T09:41:17;14.47;;;11.40;;
20000;SDS011;10161;41.188;-8.642;2022-11-25T09:44:21;13.63;;;8.10;;
20000;SDS011;10161;41.188;-8.642;2022-11-25T09:47:15;14.30;;;8.03;;
20000;SDS011;10161;41.188;-8.642;2022-11-25T09:49:52;7.50;;;5.53;;
20000;SDS011;10161;41.188;-8.642;2022-11-25T09:52:26;9.60;;;6.53;;
20000;SDS011;10161;41.188;-8.642;2022-11-25T09:55:02;11.90;;;6.43;;
20000;SDS011;10161;41.188;-8.642;2022-11-25T09:57:32;17.30;;;6.53;;
20000;SDS011;10161;41.188;-8.642;2022-11-25T10:00:09;13.27;;;6.70;;
20000;SDS011;10161;41.188;-8.642;2022-11-25T10:02:40;15.13;;;8.97;;
20000;SDS011;10161;41.188;-8.642;2022-11-25T10:05:11;9.90;;;7.50;;
20000;SDS011;10161;41.188;-8.642;2022-11-25T10:07:43;9.50;;;7.17;;
20000;SDS011;10161;41.188;-8.642;2022-11-25T10:10:14;9.77;;;7.17;;
20000;SDS011;10161;41.188;-8.642;2022-11-25T10:12:44;9.40;;;6.50;;
20000;SDS011;10161;41.188;-8.642;2022-11-25T10:15:14;10.10;;;6.70;;
20000;SDS011;10161;41.188;-8.642;2022-11-25T10:17:45;9.93;;;6.53;;
20000;SDS011;10161;41.188;-8.642;2022-11-25T10:20:17;12.20;;;6.50;;
20000;SDS011;10161;41.188;-8.642;2022-11-25T10:22:46;10.67;;;6.50;;
20000;SDS011;10161;41.188;-8.642;2022-11-25T10:25:15;12.43;;;7.20;;
20000;SDS011;10161;41.188;-8.642;2022-11-25T10:27:45;11.33;;;6.40;;
20000;SDS011;10161;41.188;-8.642;2022-11-25T10:30:17;12.90;;;6.23;;
20000;SDS011;10161;41.188;-8.642;2022-11-25T10:32:48;11.13;;;6.60;;
20000;SDS011;10161;41.188;-8.642;2022-11-25T10:35:23;13.93;;;6.10;;
20000;SDS011;10161;41.188;-8.642;2022-11-25T10:37:54;9.00;;;4.97;;
20000;SDS011;10161;41.188;-8.642;2022-11-25T10:40:21;11.73;;;4.67;;
20000;SDS011;10161;41.188;-8.642;2022-11-25T10:42:48;16.43;;;4.20;;
20000;SDS011;10161;41.188;-8.642;2022-11-25T10:45:15;9.87;;;3.80;;
20000;SDS011;10161;41.188;-8.642;2022-11-25T10:47:48;9.50;;;3.70;;
20000;SDS011;10161;41.188;-8.642;2022-11-25T10:50:32;8.40;;;3.47;;
20000;SDS011;10161;41.188;-8.642;2022-11-25T10:53:08;11.93;;;4.63;;
20000;SDS011;10161;41.188;-8.642;2022-11-25T10:55:37;17.60;;;9.10;;
20000;SDS011;10161;41.188;-8.642;2022-11-25T10:58:18;18.43;;;10.50;;
20000;SDS011;10161;41.188;-8.642;2022-11-25T11:00:47;18.60;;;10.10;;
20000;SDS011;10161;41.188;-8.642;2022-11-25T11:03:29;13.50;;;8.03;;
20000;SDS011;10161;41.188;-8.642;2022-11-25T11:05:56;13.20;;;8.00;;
20000;SDS011;10161;41.188;-8.642;2022-11-25T11:08:24;18.57;;;9.60;;
20000;SDS011;10161;41.188;-8.642;2022-11-25T11:13:57;15.33;;;8.77;;
20000;SDS011;10161;41.188;-8.642;2022-11-25T11:16:28;17.37;;;10.10;;
20000;SDS011;10161;41.188;-8.642;2022-11-25T11:18:58;19.97;;;9.00;;
20000;SDS011;10161;41.188;-8.642;2022-11-25T11:21:28;11.43;;;8.23;;
20000;SDS011;10161;41.188;-8.642;2022-11-25T11:23:56;19.90;;;9.90;;
20000;SDS011;10161;41.188;-8.642;2022-11-25T11:26:25;17.30;;;10.37;;
20000;SDS011;10161;41.188;-8.642;2022-11-25T11:28:57;14.87;;;9.90;;
20000;SDS011;10161;41.188;-8.642;2022-11-25T11:31:26;14.30;;;9.53;;
20000;SDS011;10161;41.188;-8.642;2022-11-25T11:33:59;16.33;;;8.53;;
20000;SDS011;10161;41.188;-8.642;2022-11-25T11:36:33;11.97;;;7.40;;
20000;SDS011;10161;41.188;-8.642;2022-11-25T11:39:12;9.73;;;7.10;;
20000;SDS011;10161;41.188;-8.642;2022-11-25T11:41:51;11.17;;;6.17;;
20000;SDS011;10161;41.188;-8.642;2022-11-25T11:44:24;10.50;;;6.37;;
20000;SDS011;10161;41.188;-8.642;2022-11-25T11:47:04;15.87;;;6.47;;
20000;SDS011;10161;41.188;-8.642;2022-11-25T11:49:50;8.43;;;5.80;;
20000;SDS011;10161;41.188;-8.642;2022-11-25T11:52:25;12.27;;;6.13;;
20000;SDS011;10161;41.188;-8.642;2022-11-25T11:54:57;13.00;;;5.73;;
20000;SDS011;10161;41.188;-8.642;2022-11-25T11:57:29;11.07;;;5.80;;
20000;SDS011;10161;41.188;-8.642;2022-11-25T12:00:00;12.50;;;5.60;;
20000;SDS011;10161;41.188;-8.642;2022-11-25T12:02:31;9.87;;;4.70;;
20000;SDS011;10161;41.188;-8.642;2022-11-25T12:05:13;9.73;;;5.60;;
20000;SDS011;10161;41.188;-8.642;2022-11-25T12:07:43;8.17;;;5.30;;
20000;SDS011;10161;41.188;-8.642;2022-11-25T12:10:17;6.67;;;4.40;;
20000;SDS011;10161;41.188;-8.642;2022-11-25T12:12:48;7.97;;;4.50;;
20000;SDS011;10161;41.188;-8.642;2022-11-25T12:15:19;8.60;;;4.23;;
20000;SDS011;10161;41.188;-8.642;2022-11-25T12:17:50;8.37;;;5.23;;
20000;SDS011;10161;41.188;-8.642;2022-11-25T12:20:24;8.13;;;4.17;;
20000;SDS011;10161;41.188;-8.642;2022-11-25T12:22:59;7.17;;;3.93;;
20000;SDS011;10161;41.188;-8.642;2022-11-25T12:25:30;7.67;;;4.07;;
20000;SDS011;10161;41.188;-8.642;2022-11-25T12:28:00;6.43;;;3.00;;
20000;SDS011;10161;41.188;-8.642;2022-11-25T12:30:30;5.73;;;2.53;;
20000;SDS011;10161;41.188;-8.642;2022-11-25T12:33:02;8.60;;;3.03;;
20000;SDS011;10161;41.188;-8.642;2022-11-25T12:35:39;6.73;;;3.00;;
20000;SDS011;10161;41.188;-8.642;2022-11-25T12:38:14;6.43;;;2.90;;
20000;SDS011;10161;41.188;-8.642;2022-11-25T12:40:47;5.30;;;2.67;;
20000;SDS011;10161;41.188;-8.642;2022-11-25T12:43:20;6.70;;;2.93;;
20000;SDS011;10161;41.188;-8.642;2022-11-25T12:45:54;4.40;;;2.50;;
20000;SDS011;10161;41.188;-8.642;2022-11-25T12:48:27;6.30;;;2.70;;
20000;SDS011;10161;41.188;-8.642;2022-11-25T12:50:58;5.67;;;2.23;;
20000;SDS011;10161;41.188;-8.642;2022-11-25T12:53:32;5.10;;;2.50;;
20000;SDS011;10161;41.188;-8.642;2022-11-25T12:56:03;7.33;;;3.03;;
20000;SDS011;10161;41.188;-8.642;2022-11-25T12:58:44;6.00;;;3.10;;
20000;SDS011;10161;41.188;-8.642;2022-11-25T13:01:20;5.60;;;2.53;;
20000;SDS011;10161;41.188;-8.642;2022-11-25T13:03:56;5.90;;;2.83;;
20000;SDS011;10161;41.188;-8.642;2022-11-25T13:09:43;8.40;;;2.30;;
20000;SDS011;10161;41.188;-8.642;2022-11-25T13:12:18;5.10;;;2.17;;
20000;SDS011;10161;41.188;-8.642;2022-11-25T13:15:00;6.87;;;2.10;;
20000;SDS011;10161;41.188;-8.642;2022-11-25T13:17:40;5.63;;;2.27;;
20000;SDS011;10161;41.188;-8.642;2022-11-25T13:20:22;4.57;;;2.40;;
20000;SDS011;10161;41.188;-8.642;2022-11-25T13:23:06;8.47;;;2.50;;
20000;SDS011;10161;41.188;-8.642;2022-11-25T13:25:36;5.10;;;2.70;;
20000;SDS011;10161;41.188;-8.642;2022-11-25T13:28:04;8.73;;;2.83;;
20000;SDS011;10161;41.188;-8.642;2022-11-25T13:30:37;6.10;;;2.77;;
20000;SDS011;10161;41.188;-8.642;2022-11-25T13:36:14;4.80;;;2.37;;
20000;SDS011;10161;41.188;-8.642;2022-11-25T13:38:57;4.50;;;1.70;;
20000;SDS011;10161;41.188;-8.642;2022-11-25T13:44:25;5.23;;;2.50;;
20000;SDS011;10161;41.188;-8.642;2022-11-25T13:46:55;5.90;;;3.20;;
20000;SDS011;10161;41.188;-8.642;2022-11-25T13:49:24;6.83;;;3.27;;
20000;SDS011;10161;41.188;-8.642;2022-11-25T13:51:57;8.70;;;3.03;;
20000;SDS011;10161;41.188;-8.642;2022-11-25T13:54:26;4.70;;;2.73;;
20000;SDS011;10161;41.188;-8.642;2022-11-25T13:59:50;4.07;;;2.27;;
20000;SDS011;10161;41.188;-8.642;2022-11-25T14:02:23;5.60;;;3.20;;
20000;SDS011;10161;41.188;-8.642;2022-11-25T14:04:57;5.80;;;3.10;;
20000;SDS011;10161;41.188;-8.642;2022-11-25T14:07:29;3.30;;;2.50;;
20000;SDS011;10161;41.188;-8.642;2022-11-25T14:10:09;4.77;;;2.20;;
20000;SDS011;10161;41.188;-8.642;2022-11-25T14:12:55;3.83;;;1.90;;
20000;SDS011;10161;41.188;-8.642;2022-11-25T14:18:33;7.03;;;2.60;;
20000;SDS011;10161;41.188;-8.642;2022-11-25T14:21:05;3.13;;;1.93;;
20000;SDS011;10161;41.188;-8.642;2022-11-25T14:23:48;4.00;;;2.10;;
20000;SDS011;10161;41.188;-8.642;2022-11-25T14:26:24;3.83;;;2.10;;
20000;SDS011;10161;41.188;-8.642;2022-11-25T14:28:54;3.00;;;1.80;;
20000;SDS011;10161;41.188;-8.642;2022-11-25T14:31:25;3.77;;;1.97;;
20000;SDS011;10161;41.188;-8.642;2022-11-25T14:33:58;2.70;;;1.80;;
20000;SDS011;10161;41.188;-8.642;2022-11-25T14:36:29;5.67;;;2.47;;
20000;SDS011;10161;41.188;-8.642;2022-11-25T14:39:01;3.77;;;2.33;;
20000;SDS011;10161;41.188;-8.642;2022-11-25T14:41:31;4.87;;;2.60;;
20000;SDS011;10161;41.188;-8.642;2022-11-25T14:44:04;5.73;;;2.30;;
20000;SDS011;10161;41.188;-8.642;2022-11-25T14:46:39;2.63;;;2.17;;
20000;SDS011;10161;41.188;-8.642;2022-11-25T14:49:16;3.00;;;1.83;;
20000;SDS011;10161;41.188;-8.642;2022-11-25T14:51:44;3.13;;;2.00;;
20000;SDS011;10161;41.188;-8.642;2022-11-25T14:54:13;3.20;;;2.00;;
20000;SDS011;10161;41.188;-8.642;2022-11-25T14:56:40;5.30;;;2.00;;
20000;SDS011;10161;41.188;-8.642;2022-11-25T14:59:09;3.53;;;1.83;;
20000;SDS011;10161;41.188;-8.642;2022-11-25T15:01:37;3.87;;;1.77;;